sensor_id;sensor_type;location;lat;lon;timestamp;temperature;humidity
22787;DHT22;63134;52.020;4.714;2023-04-23T00:02:38;9.30;99.90
22787;DHT22;63134;52.020;4.714;2023-04-23T00:05:26;9.30;99.90
22787;DHT22;63134;52.020;4.714;2023-04-23T00:08:12;9.30;99.90
22787;DHT22;63134;52.020;4.714;2023-04-23T00:11:00;9.30;99.90
22787;DHT22;63134;52.020;4.714;2023-04-23T00:13:46;9.20;99.90
22787;DHT22;63134;52.020;4.714;2023-04-23T00:16:37;9.30;99.90
22787;DHT22;63134;52.020;4.714;2023-04-23T00:19:23;9.20;99.90
22787;DHT22;63134;52.020;4.714;2023-04-23T00:22:09;9.30;99.90
22787;DHT22;63134;52.020;4.714;2023-04-23T00:24:54;9.30;99.90
22787;DHT22;63134;52.020;4.714;2023-04-23T00:27:40;9.40;99.90
22787;DHT22;63134;52.020;4.714;2023-04-23T00:30:25;9.40;99.90
22787;DHT22;63134;52.020;4.714;2023-04-23T00:33:12;9.40;99.90
22787;DHT22;63134;52.020;4.714;2023-04-23T00:35:57;9.50;99.90
22787;DHT22;63134;52.020;4.714;2023-04-23T00:38:43;9.50;99.90
22787;DHT22;63134;52.020;4.714;2023-04-23T00:41:28;9.60;99.90
22787;DHT22;63134;52.020;4.714;2023-04-23T00:44:20;9.70;99.90
22787;DHT22;63134;52.020;4.714;2023-04-23T00:47:06;9.70;99.90
22787;DHT22;63134;52.020;4.714;2023-04-23T00:49:52;9.60;99.90
22787;DHT22;63134;52.020;4.714;2023-04-23T00:52:39;9.50;99.90
22787;DHT22;63134;52.020;4.714;2023-04-23T00:55:28;9.50;99.90
22787;DHT22;63134;52.020;4.714;2023-04-23T00:58:17;9.40;99.90
22787;DHT22;63134;52.020;4.714;2023-04-23T01:01:04;9.40;99.90
22787;DHT22;63134;52.020;4.714;2023-04-23T01:03:52;9.40;99.90
22787;DHT22;63134;52.020;4.714;2023-04-23T01:06:39;9.50;99.90
22787;DHT22;63134;52.020;4.714;2023-04-23T01:09:26;9.50;99.90
22787;DHT22;63134;52.020;4.714;2023-04-23T01:12:12;9.70;99.90
22787;DHT22;63134;52.020;4.714;2023-04-23T01:14:59;9.70;99.90
22787;DHT22;63134;52.020;4.714;2023-04-23T01:17:45;9.70;99.90
22787;DHT22;63134;52.020;4.714;2023-04-23T01:20:33;9.80;99.90
22787;DHT22;63134;52.020;4.714;2023-04-23T01:23:19;9.80;99.90
22787;DHT22;63134;52.020;4.714;2023-04-23T01:26:05;9.90;99.90
22787;DHT22;63134;52.020;4.714;2023-04-23T01:28:51;9.90;99.90
22787;DHT22;63134;52.020;4.714;2023-04-23T01:31:37;9.90;99.90
22787;DHT22;63134;52.020;4.714;2023-04-23T01:34:22;9.90;99.90
22787;DHT22;63134;52.020;4.714;2023-04-23T01:37:08;9.90;99.90
22787;DHT22;63134;52.020;4.714;2023-04-23T01:39:54;9.80;99.90
22787;DHT22;63134;52.020;4.714;2023-04-23T01:42:44;9.90;99.90
22787;DHT22;63134;52.020;4.714;2023-04-23T01:45:30;9.90;99.90
22787;DHT22;63134;52.020;4.714;2023-04-23T01:48:16;9.90;99.90
22787;DHT22;63134;52.020;4.714;2023-04-23T01:51:01;10.00;99.90
22787;DHT22;63134;52.020;4.714;2023-04-23T01:53:47;10.00;99.90
22787;DHT22;63134;52.020;4.714;2023-04-23T01:56:32;10.00;99.90
22787;DHT22;63134;52.020;4.714;2023-04-23T01:59:20;10.10;99.90
22787;DHT22;63134;52.020;4.714;2023-04-23T02:02:07;10.10;99.90
22787;DHT22;63134;52.020;4.714;2023-04-23T02:05:00;10.10;99.90
22787;DHT22;63134;52.020;4.714;2023-04-23T02:07:50;10.20;99.90
22787;DHT22;63134;52.020;4.714;2023-04-23T02:10:35;10.20;99.90
22787;DHT22;63134;52.020;4.714;2023-04-23T02:13:21;10.20;99.90
22787;DHT22;63134;52.020;4.714;2023-04-23T02:16:07;10.20;99.90
22787;DHT22;63134;52.020;4.714;2023-04-23T02:18:52;10.20;99.90
22787;DHT22;63134;52.020;4.714;2023-04-23T02:21:37;10.20;99.90
22787;DHT22;63134;52.020;4.714;2023-04-23T02:24:23;10.20;99.90
22787;DHT22;63134;52.020;4.714;2023-04-23T02:27:09;10.20;99.90
22787;DHT22;63134;52.020;4.714;2023-04-23T02:29:54;10.20;99.90
22787;DHT22;63134;52.020;4.714;2023-04-23T02:32:41;10.20;99.90
22787;DHT22;63134;52.020;4.714;2023-04-23T02:35:29;10.20;99.90
22787;DHT22;63134;52.020;4.714;2023-04-23T02:38:15;10.20;99.90
22787;DHT22;63134;52.020;4.714;2023-04-23T02:41:03;10.30;99.90
22787;DHT22;63134;52.020;4.714;2023-04-23T02:43:48;10.30;99.90
22787;DHT22;63134;52.020;4.714;2023-04-23T02:46:34;10.30;99.90
22787;DHT22;63134;52.020;4.714;2023-04-23T02:49:21;10.30;99.90
22787;DHT22;63134;52.020;4.714;2023-04-23T02:52:07;10.30;99.90
22787;DHT22;63134;52.020;4.714;2023-04-23T02:54:54;10.30;99.90
22787;DHT22;63134;52.020;4.714;2023-04-23T02:57:40;10.20;99.90
22787;DHT22;63134;52.020;4.714;2023-04-23T03:00:27;10.20;99.90
22787;DHT22;63134;52.020;4.714;2023-04-23T03:03:12;10.20;99.90
22787;DHT22;63134;52.020;4.714;2023-04-23T03:05:59;10.20;99.90
22787;DHT22;63134;52.020;4.714;2023-04-23T03:08:45;10.30;99.90
22787;DHT22;63134;52.020;4.714;2023-04-23T03:11:31;10.30;99.90
22787;DHT22;63134;52.020;4.714;2023-04-23T03:14:16;10.30;99.90
22787;DHT22;63134;52.020;4.714;2023-04-23T03:17:02;10.20;99.90
22787;DHT22;63134;52.020;4.714;2023-04-23T03:19:49;10.20;99.90
22787;DHT22;63134;52.020;4.714;2023-04-23T03:22:34;10.20;99.90
22787;DHT22;63134;52.020;4.714;2023-04-23T03:25:20;10.20;99.90
22787;DHT22;63134;52.020;4.714;2023-04-23T03:28:07;10.20;99.90
22787;DHT22;63134;52.020;4.714;2023-04-23T03:30:53;10.20;99.90
22787;DHT22;63134;52.020;4.714;2023-04-23T03:33:38;10.30;99.90
22787;DHT22;63134;52.020;4.714;2023-04-23T03:36:24;10.30;99.90
22787;DHT22;63134;52.020;4.714;2023-04-23T03:39:10;10.30;99.90
22787;DHT22;63134;52.020;4.714;2023-04-23T03:42:07;10.30;99.90
22787;DHT22;63134;52.020;4.714;2023-04-23T03:44:55;10.40;99.90
22787;DHT22;63134;52.020;4.714;2023-04-23T03:47:40;10.30;99.90
22787;DHT22;63134;52.020;4.714;2023-04-23T03:50:26;10.30;99.90
22787;DHT22;63134;52.020;4.714;2023-04-23T03:53:25;10.30;99.90
22787;DHT22;63134;52.020;4.714;2023-04-23T03:56:36;10.40;99.90
22787;DHT22;63134;52.020;4.714;2023-04-23T03:59:32;10.30;99.90
22787;DHT22;63134;52.020;4.714;2023-04-23T04:02:18;10.40;99.90
22787;DHT22;63134;52.020;4.714;2023-04-23T04:05:07;10.30;99.90
22787;DHT22;63134;52.020;4.714;2023-04-23T04:07:56;10.30;99.90
22787;DHT22;63134;52.020;4.714;2023-04-23T04:10:43;10.30;99.90
22787;DHT22;63134;52.020;4.714;2023-04-23T04:13:29;10.30;99.90
22787;DHT22;63134;52.020;4.714;2023-04-23T04:16:14;10.30;99.90
22787;DHT22;63134;52.020;4.714;2023-04-23T04:19:00;10.30;99.90
22787;DHT22;63134;52.020;4.714;2023-04-23T04:21:45;10.20;99.90
22787;DHT22;63134;52.020;4.714;2023-04-23T04:24:37;10.10;99.90
22787;DHT22;63134;52.020;4.714;2023-04-23T04:27:24;10.20;99.90
22787;DHT22;63134;52.020;4.714;2023-04-23T04:30:10;10.10;99.90
22787;DHT22;63134;52.020;4.714;2023-04-23T04:32:55;10.10;99.90
22787;DHT22;63134;52.020;4.714;2023-04-23T04:35:44;10.00;99.90
22787;DHT22;63134;52.020;4.714;2023-04-23T04:38:31;10.00;99.90
22787;DHT22;63134;52.020;4.714;2023-04-23T04:41:17;10.00;99.90
22787;DHT22;63134;52.020;4.714;2023-04-23T04:44:06;10.00;99.90
22787;DHT22;63134;52.020;4.714;2023-04-23T04:46:54;10.00;99.90
22787;DHT22;63134;52.020;4.714;2023-04-23T04:49:40;10.00;99.90
22787;DHT22;63134;52.020;4.714;2023-04-23T04:52:29;10.00;99.90
22787;DHT22;63134;52.020;4.714;2023-04-23T04:55:15;10.00;99.90
22787;DHT22;63134;52.020;4.714;2023-04-23T04:58:00;10.00;99.90
22787;DHT22;63134;52.020;4.714;2023-04-23T05:00:46;10.00;99.90
22787;DHT22;63134;52.020;4.714;2023-04-23T05:03:36;10.00;99.90
22787;DHT22;63134;52.020;4.714;2023-04-23T05:06:24;10.10;99.90
22787;DHT22;63134;52.020;4.714;2023-04-23T05:09:10;10.00;99.90
22787;DHT22;63134;52.020;4.714;2023-04-23T05:11:56;10.00;99.90
22787;DHT22;63134;52.020;4.714;2023-04-23T05:14:43;10.00;99.90
22787;DHT22;63134;52.020;4.714;2023-04-23T05:17:31;10.00;99.90
22787;DHT22;63134;52.020;4.714;2023-04-23T05:20:16;10.00;99.90
22787;DHT22;63134;52.020;4.714;2023-04-23T05:23:02;10.10;99.90
22787;DHT22;63134;52.020;4.714;2023-04-23T05:25:48;10.10;99.90
22787;DHT22;63134;52.020;4.714;2023-04-23T05:28:38;10.20;99.90
22787;DHT22;63134;52.020;4.714;2023-04-23T05:31:24;10.30;99.90
22787;DHT22;63134;52.020;4.714;2023-04-23T05:34:11;10.30;99.90
22787;DHT22;63134;52.020;4.714;2023-04-23T05:36:58;10.30;99.90
22787;DHT22;63134;52.020;4.714;2023-04-23T05:39:46;10.30;99.90
22787;DHT22;63134;52.020;4.714;2023-04-23T05:42:34;10.30;99.90
22787;DHT22;63134;52.020;4.714;2023-04-23T05:45:19;10.30;99.90
22787;DHT22;63134;52.020;4.714;2023-04-23T05:48:05;10.40;99.90
22787;DHT22;63134;52.020;4.714;2023-04-23T05:50:51;10.40;99.90
22787;DHT22;63134;52.020;4.714;2023-04-23T05:53:36;10.50;99.90
22787;DHT22;63134;52.020;4.714;2023-04-23T05:56:25;10.60;99.90
22787;DHT22;63134;52.020;4.714;2023-04-23T05:59:10;10.60;99.90
22787;DHT22;63134;52.020;4.714;2023-04-23T06:01:56;10.70;99.90
22787;DHT22;63134;52.020;4.714;2023-04-23T06:04:42;10.70;99.90
22787;DHT22;63134;52.020;4.714;2023-04-23T06:07:28;10.80;99.90
22787;DHT22;63134;52.020;4.714;2023-04-23T06:10:14;10.80;99.90
22787;DHT22;63134;52.020;4.714;2023-04-23T06:13:00;10.90;99.90
22787;DHT22;63134;52.020;4.714;2023-04-23T06:15:45;10.90;99.90
22787;DHT22;63134;52.020;4.714;2023-04-23T06:18:31;11.00;99.90
22787;DHT22;63134;52.020;4.714;2023-04-23T06:21:17;11.10;99.90
22787;DHT22;63134;52.020;4.714;2023-04-23T06:24:04;11.10;99.90
22787;DHT22;63134;52.020;4.714;2023-04-23T06:26:50;11.20;99.90
22787;DHT22;63134;52.020;4.714;2023-04-23T06:29:37;11.20;99.90
22787;DHT22;63134;52.020;4.714;2023-04-23T06:32:23;11.30;99.90
22787;DHT22;63134;52.020;4.714;2023-04-23T06:35:10;11.40;99.90
22787;DHT22;63134;52.020;4.714;2023-04-23T06:37:56;11.40;99.90
22787;DHT22;63134;52.020;4.714;2023-04-23T06:40:41;11.50;99.90
22787;DHT22;63134;52.020;4.714;2023-04-23T06:43:27;11.60;99.90
22787;DHT22;63134;52.020;4.714;2023-04-23T06:46:48;11.70;99.90
22787;DHT22;63134;52.020;4.714;2023-04-23T06:49:33;11.80;99.90
22787;DHT22;63134;52.020;4.714;2023-04-23T06:52:18;11.90;99.90
22787;DHT22;63134;52.020;4.714;2023-04-23T06:55:04;12.00;99.90
22787;DHT22;63134;52.020;4.714;2023-04-23T06:57:53;12.10;99.90
22787;DHT22;63134;52.020;4.714;2023-04-23T07:00:39;12.20;99.90
22787;DHT22;63134;52.020;4.714;2023-04-23T07:03:26;12.30;99.90
22787;DHT22;63134;52.020;4.714;2023-04-23T07:06:12;12.40;99.90
22787;DHT22;63134;52.020;4.714;2023-04-23T07:08:57;12.50;99.90
22787;DHT22;63134;52.020;4.714;2023-04-23T07:11:43;12.60;99.90
22787;DHT22;63134;52.020;4.714;2023-04-23T07:14:29;12.70;99.90
22787;DHT22;63134;52.020;4.714;2023-04-23T07:17:14;12.80;99.90
22787;DHT22;63134;52.020;4.714;2023-04-23T07:20:00;12.90;99.90
22787;DHT22;63134;52.020;4.714;2023-04-23T07:22:52;13.00;99.40
22787;DHT22;63134;52.020;4.714;2023-04-23T07:25:43;13.00;98.30
22787;DHT22;63134;52.020;4.714;2023-04-23T07:28:28;13.10;97.00
22787;DHT22;63134;52.020;4.714;2023-04-23T07:31:15;13.10;96.30
22787;DHT22;63134;52.020;4.714;2023-04-23T07:34:00;13.20;96.30
22787;DHT22;63134;52.020;4.714;2023-04-23T07:36:46;13.30;96.00
22787;DHT22;63134;52.020;4.714;2023-04-23T07:39:32;13.40;95.50
22787;DHT22;63134;52.020;4.714;2023-04-23T07:42:18;13.50;94.60
22787;DHT22;63134;52.020;4.714;2023-04-23T07:45:04;13.60;94.50
22787;DHT22;63134;52.020;4.714;2023-04-23T07:47:53;13.70;94.40
22787;DHT22;63134;52.020;4.714;2023-04-23T07:50:41;13.70;93.30
22787;DHT22;63134;52.020;4.714;2023-04-23T07:53:27;13.70;93.00
22787;DHT22;63134;52.020;4.714;2023-04-23T07:56:12;13.80;92.60
22787;DHT22;63134;52.020;4.714;2023-04-23T07:58:58;13.70;92.30
22787;DHT22;63134;52.020;4.714;2023-04-23T08:01:44;13.80;92.10
22787;DHT22;63134;52.020;4.714;2023-04-23T08:04:30;13.80;91.60
22787;DHT22;63134;52.020;4.714;2023-04-23T08:07:15;13.80;91.80
22787;DHT22;63134;52.020;4.714;2023-04-23T08:10:01;13.80;91.30
22787;DHT22;63134;52.020;4.714;2023-04-23T08:12:49;13.90;91.30
22787;DHT22;63134;52.020;4.714;2023-04-23T08:15:35;13.90;91.30
22787;DHT22;63134;52.020;4.714;2023-04-23T08:18:20;13.90;91.70
22787;DHT22;63134;52.020;4.714;2023-04-23T08:21:06;14.00;91.00
22787;DHT22;63134;52.020;4.714;2023-04-23T08:23:52;14.00;91.10
22787;DHT22;63134;52.020;4.714;2023-04-23T08:26:37;14.10;90.60
22787;DHT22;63134;52.020;4.714;2023-04-23T08:29:23;14.10;90.60
22787;DHT22;63134;52.020;4.714;2023-04-23T08:32:09;14.10;90.70
22787;DHT22;63134;52.020;4.714;2023-04-23T08:34:55;14.20;90.90
22787;DHT22;63134;52.020;4.714;2023-04-23T08:37:40;14.30;90.10
22787;DHT22;63134;52.020;4.714;2023-04-23T08:40:29;14.30;89.70
22787;DHT22;63134;52.020;4.714;2023-04-23T08:43:18;14.40;90.10
22787;DHT22;63134;52.020;4.714;2023-04-23T08:46:05;14.50;90.00
22787;DHT22;63134;52.020;4.714;2023-04-23T08:48:53;14.60;87.80
22787;DHT22;63134;52.020;4.714;2023-04-23T08:51:51;14.50;87.60
22787;DHT22;63134;52.020;4.714;2023-04-23T08:54:40;14.60;88.10
22787;DHT22;63134;52.020;4.714;2023-04-23T08:57:29;14.70;88.20
22787;DHT22;63134;52.020;4.714;2023-04-23T09:00:17;14.80;88.20
22787;DHT22;63134;52.020;4.714;2023-04-23T09:03:03;14.90;87.70
22787;DHT22;63134;52.020;4.714;2023-04-23T09:05:50;15.10;88.20
22787;DHT22;63134;52.020;4.714;2023-04-23T09:08:37;15.30;87.30
22787;DHT22;63134;52.020;4.714;2023-04-23T09:11:23;15.50;85.40
22787;DHT22;63134;52.020;4.714;2023-04-23T09:14:12;15.50;85.30
22787;DHT22;63134;52.020;4.714;2023-04-23T09:16:57;15.80;84.30
22787;DHT22;63134;52.020;4.714;2023-04-23T09:19:44;16.00;82.80
22787;DHT22;63134;52.020;4.714;2023-04-23T09:25:23;16.20;80.90
22787;DHT22;63134;52.020;4.714;2023-04-23T09:28:09;16.30;81.50
22787;DHT22;63134;52.020;4.714;2023-04-23T09:30:56;16.40;80.70
22787;DHT22;63134;52.020;4.714;2023-04-23T09:33:43;16.50;79.70
22787;DHT22;63134;52.020;4.714;2023-04-23T09:36:35;16.60;78.50
22787;DHT22;63134;52.020;4.714;2023-04-23T09:39:22;16.70;77.10
22787;DHT22;63134;52.020;4.714;2023-04-23T09:42:08;16.70;77.30
22787;DHT22;63134;52.020;4.714;2023-04-23T09:47:51;17.00;75.70
22787;DHT22;63134;52.020;4.714;2023-04-23T09:50:38;17.00;75.40
22787;DHT22;63134;52.020;4.714;2023-04-23T09:53:25;17.10;75.20
22787;DHT22;63134;52.020;4.714;2023-04-23T09:56:11;17.30;74.30
22787;DHT22;63134;52.020;4.714;2023-04-23T09:58:56;17.50;73.50
22787;DHT22;63134;52.020;4.714;2023-04-23T10:01:44;17.40;72.60
22787;DHT22;63134;52.020;4.714;2023-04-23T10:04:31;17.50;73.20
22787;DHT22;63134;52.020;4.714;2023-04-23T10:07:17;17.80;72.60
22787;DHT22;63134;52.020;4.714;2023-04-23T10:10:05;17.90;71.10
22787;DHT22;63134;52.020;4.714;2023-04-23T10:12:52;17.80;69.90
22787;DHT22;63134;52.020;4.714;2023-04-23T10:15:39;17.90;69.80
22787;DHT22;63134;52.020;4.714;2023-04-23T10:18:25;18.00;69.60
22787;DHT22;63134;52.020;4.714;2023-04-23T10:21:11;18.00;70.10
22787;DHT22;63134;52.020;4.714;2023-04-23T10:24:01;18.10;69.10
22787;DHT22;63134;52.020;4.714;2023-04-23T10:26:51;18.30;69.30
22787;DHT22;63134;52.020;4.714;2023-04-23T10:29:38;18.50;68.70
22787;DHT22;63134;52.020;4.714;2023-04-23T10:32:26;18.70;67.00
22787;DHT22;63134;52.020;4.714;2023-04-23T10:35:11;18.50;66.30
22787;DHT22;63134;52.020;4.714;2023-04-23T10:37:57;18.50;66.20
22787;DHT22;63134;52.020;4.714;2023-04-23T10:40:44;18.50;66.40
22787;DHT22;63134;52.020;4.714;2023-04-23T10:43:31;18.50;66.80
22787;DHT22;63134;52.020;4.714;2023-04-23T10:46:30;18.50;66.60
22787;DHT22;63134;52.020;4.714;2023-04-23T10:49:15;18.60;66.20
22787;DHT22;63134;52.020;4.714;2023-04-23T10:52:12;18.70;64.10
22787;DHT22;63134;52.020;4.714;2023-04-23T10:55:19;18.60;64.20
22787;DHT22;63134;52.020;4.714;2023-04-23T10:58:06;18.70;64.10
22787;DHT22;63134;52.020;4.714;2023-04-23T11:00:53;18.70;64.40
22787;DHT22;63134;52.020;4.714;2023-04-23T11:03:44;18.80;64.70
22787;DHT22;63134;52.020;4.714;2023-04-23T11:15:18;19.10;63.10
22787;DHT22;63134;52.020;4.714;2023-04-23T11:18:03;19.00;63.10
22787;DHT22;63134;52.020;4.714;2023-04-23T11:20:49;18.80;64.20
22787;DHT22;63134;52.020;4.714;2023-04-23T11:23:35;18.80;63.50
22787;DHT22;63134;52.020;4.714;2023-04-23T11:26:27;18.60;63.20
22787;DHT22;63134;52.020;4.714;2023-04-23T11:29:16;18.50;63.50
22787;DHT22;63134;52.020;4.714;2023-04-23T11:32:02;18.60;63.80
22787;DHT22;63134;52.020;4.714;2023-04-23T11:34:50;18.60;63.90
22787;DHT22;63134;52.020;4.714;2023-04-23T11:37:43;18.80;64.10
22787;DHT22;63134;52.020;4.714;2023-04-23T11:40:29;18.90;63.20
22787;DHT22;63134;52.020;4.714;2023-04-23T11:43:19;19.00;62.70
22787;DHT22;63134;52.020;4.714;2023-04-23T11:46:05;19.20;63.00
22787;DHT22;63134;52.020;4.714;2023-04-23T11:48:50;19.90;63.40
22787;DHT22;63134;52.020;4.714;2023-04-23T11:51:40;20.20;58.80
22787;DHT22;63134;52.020;4.714;2023-04-23T11:54:28;20.40;58.50
22787;DHT22;63134;52.020;4.714;2023-04-23T11:57:15;21.10;57.90
22787;DHT22;63134;52.020;4.714;2023-04-23T12:00:01;21.50;54.40
22787;DHT22;63134;52.020;4.714;2023-04-23T12:03:01;21.50;53.40
22787;DHT22;63134;52.020;4.714;2023-04-23T12:05:47;21.10;52.30
22787;DHT22;63134;52.020;4.714;2023-04-23T12:08:33;20.80;53.40
22787;DHT22;63134;52.020;4.714;2023-04-23T12:11:22;20.70;54.20
22787;DHT22;63134;52.020;4.714;2023-04-23T12:14:09;20.80;54.00
22787;DHT22;63134;52.020;4.714;2023-04-23T12:16:56;21.20;55.20
22787;DHT22;63134;52.020;4.714;2023-04-23T12:19:42;21.60;51.80
22787;DHT22;63134;52.020;4.714;2023-04-23T12:22:29;21.40;51.60
22787;DHT22;63134;52.020;4.714;2023-04-23T12:25:14;21.30;51.60
22787;DHT22;63134;52.020;4.714;2023-04-23T12:28:01;21.20;51.70
22787;DHT22;63134;52.020;4.714;2023-04-23T12:30:48;21.00;51.00
22787;DHT22;63134;52.020;4.714;2023-04-23T12:33:33;20.80;52.30
22787;DHT22;63134;52.020;4.714;2023-04-23T12:36:18;20.80;52.60
22787;DHT22;63134;52.020;4.714;2023-04-23T12:39:33;20.60;53.20
22787;DHT22;63134;52.020;4.714;2023-04-23T12:42:18;20.30;53.80
22787;DHT22;63134;52.020;4.714;2023-04-23T12:45:06;20.20;54.40
22787;DHT22;63134;52.020;4.714;2023-04-23T12:47:52;19.90;54.50
22787;DHT22;63134;52.020;4.714;2023-04-23T12:50:38;19.60;55.60
22787;DHT22;63134;52.020;4.714;2023-04-23T12:53:23;19.30;56.20
22787;DHT22;63134;52.020;4.714;2023-04-23T12:56:09;19.20;57.10
22787;DHT22;63134;52.020;4.714;2023-04-23T12:58:57;18.90;58.20
22787;DHT22;63134;52.020;4.714;2023-04-23T13:01:46;18.70;58.80
22787;DHT22;63134;52.020;4.714;2023-04-23T13:04:33;18.50;60.70
22787;DHT22;63134;52.020;4.714;2023-04-23T13:07:19;18.10;64.10
22787;DHT22;63134;52.020;4.714;2023-04-23T13:10:12;17.40;67.20
22787;DHT22;63134;52.020;4.714;2023-04-23T13:12:58;16.80;72.70
22787;DHT22;63134;52.020;4.714;2023-04-23T13:15:43;15.90;77.50
22787;DHT22;63134;52.020;4.714;2023-04-23T13:18:29;15.30;81.70
22787;DHT22;63134;52.020;4.714;2023-04-23T13:21:14;14.90;83.50
22787;DHT22;63134;52.020;4.714;2023-04-23T13:24:00;14.60;85.60
22787;DHT22;63134;52.020;4.714;2023-04-23T13:26:45;14.40;87.80
22787;DHT22;63134;52.020;4.714;2023-04-23T13:29:31;14.30;89.20
22787;DHT22;63134;52.020;4.714;2023-04-23T13:32:16;14.30;90.30
22787;DHT22;63134;52.020;4.714;2023-04-23T13:35:07;14.20;90.90
22787;DHT22;63134;52.020;4.714;2023-04-23T13:37:52;14.10;91.20
22787;DHT22;63134;52.020;4.714;2023-04-23T13:40:38;14.10;91.70
22787;DHT22;63134;52.020;4.714;2023-04-23T13:43:24;14.10;91.70
22787;DHT22;63134;52.020;4.714;2023-04-23T13:46:09;14.20;91.90
22787;DHT22;63134;52.020;4.714;2023-04-23T13:48:56;14.20;91.90
22787;DHT22;63134;52.020;4.714;2023-04-23T13:51:52;14.20;91.80
22787;DHT22;63134;52.020;4.714;2023-04-23T13:54:38;14.30;92.10
22787;DHT22;63134;52.020;4.714;2023-04-23T13:57:24;14.40;92.30
22787;DHT22;63134;52.020;4.714;2023-04-23T14:00:09;14.50;91.70
22787;DHT22;63134;52.020;4.714;2023-04-23T14:02:55;14.50;91.70
22787;DHT22;63134;52.020;4.714;2023-04-23T14:05:41;14.50;91.60
22787;DHT22;63134;52.020;4.714;2023-04-23T14:08:27;14.50;91.70
22787;DHT22;63134;52.020;4.714;2023-04-23T14:11:12;14.50;91.80
22787;DHT22;63134;52.020;4.714;2023-04-23T14:13:58;14.40;92.00
22787;DHT22;63134;52.020;4.714;2023-04-23T14:16:45;14.40;92.40
22787;DHT22;63134;52.020;4.714;2023-04-23T14:19:30;14.40;92.50
22787;DHT22;63134;52.020;4.714;2023-04-23T14:22:18;14.40;92.70
22787;DHT22;63134;52.020;4.714;2023-04-23T14:25:24;14.40;93.00
22787;DHT22;63134;52.020;4.714;2023-04-23T14:28:33;14.30;93.30
22787;DHT22;63134;52.020;4.714;2023-04-23T14:31:20;14.20;93.80
22787;DHT22;63134;52.020;4.714;2023-04-23T14:34:09;14.30;94.20
22787;DHT22;63134;52.020;4.714;2023-04-23T14:36:56;14.20;94.50
22787;DHT22;63134;52.020;4.714;2023-04-23T14:39:42;14.20;94.70
22787;DHT22;63134;52.020;4.714;2023-04-23T14:42:27;14.10;95.10
22787;DHT22;63134;52.020;4.714;2023-04-23T14:45:15;14.00;95.20
22787;DHT22;63134;52.020;4.714;2023-04-23T14:48:02;13.90;95.90
22787;DHT22;63134;52.020;4.714;2023-04-23T14:50:47;13.90;96.60
22787;DHT22;63134;52.020;4.714;2023-04-23T14:53:36;14.00;97.20
22787;DHT22;63134;52.020;4.714;2023-04-23T14:56:24;14.00;97.10
22787;DHT22;63134;52.020;4.714;2023-04-23T14:59:10;14.00;97.50
22787;DHT22;63134;52.020;4.714;2023-04-23T15:01:56;14.00;97.60
22787;DHT22;63134;52.020;4.714;2023-04-23T15:04:41;14.00;97.80
22787;DHT22;63134;52.020;4.714;2023-04-23T15:07:30;14.10;98.10
22787;DHT22;63134;52.020;4.714;2023-04-23T15:10:17;14.10;98.50
22787;DHT22;63134;52.020;4.714;2023-04-23T15:13:18;14.10;98.30
22787;DHT22;63134;52.020;4.714;2023-04-23T15:16:24;14.10;98.20
22787;DHT22;63134;52.020;4.714;2023-04-23T15:19:30;14.10;98.20
22787;DHT22;63134;52.020;4.714;2023-04-23T15:22:16;14.00;97.60
22787;DHT22;63134;52.020;4.714;2023-04-23T15:25:02;13.90;97.00
22787;DHT22;63134;52.020;4.714;2023-04-23T15:27:47;13.90;97.10
22787;DHT22;63134;52.020;4.714;2023-04-23T15:30:35;13.80;96.90
22787;DHT22;63134;52.020;4.714;2023-04-23T15:33:21;13.80;96.70
22787;DHT22;63134;52.020;4.714;2023-04-23T15:36:06;13.70;96.60
22787;DHT22;63134;52.020;4.714;2023-04-23T15:38:52;13.70;96.80
22787;DHT22;63134;52.020;4.714;2023-04-23T15:41:38;13.80;97.10
22787;DHT22;63134;52.020;4.714;2023-04-23T15:44:26;13.80;97.70
22787;DHT22;63134;52.020;4.714;2023-04-23T15:47:11;14.00;97.80
22787;DHT22;63134;52.020;4.714;2023-04-23T15:49:57;14.10;97.90
22787;DHT22;63134;52.020;4.714;2023-04-23T15:52:42;14.10;97.70
22787;DHT22;63134;52.020;4.714;2023-04-23T15:55:28;14.20;97.20
22787;DHT22;63134;52.020;4.714;2023-04-23T15:58:14;14.30;97.20
22787;DHT22;63134;52.020;4.714;2023-04-23T16:01:02;14.40;97.10
22787;DHT22;63134;52.020;4.714;2023-04-23T16:03:48;14.40;96.50
22787;DHT22;63134;52.020;4.714;2023-04-23T16:06:53;14.40;96.20
22787;DHT22;63134;52.020;4.714;2023-04-23T16:09:38;14.40;96.00
22787;DHT22;63134;52.020;4.714;2023-04-23T16:12:26;14.40;95.90
22787;DHT22;63134;52.020;4.714;2023-04-23T16:15:11;14.40;96.10
22787;DHT22;63134;52.020;4.714;2023-04-23T16:17:57;14.40;96.00
22787;DHT22;63134;52.020;4.714;2023-04-23T16:20:44;14.40;95.70
22787;DHT22;63134;52.020;4.714;2023-04-23T16:23:29;14.40;95.70
22787;DHT22;63134;52.020;4.714;2023-04-23T16:26:15;14.40;95.60
22787;DHT22;63134;52.020;4.714;2023-04-23T16:29:04;14.40;95.50
22787;DHT22;63134;52.020;4.714;2023-04-23T16:31:55;14.40;95.60
22787;DHT22;63134;52.020;4.714;2023-04-23T16:34:40;14.40;95.30
22787;DHT22;63134;52.020;4.714;2023-04-23T16:37:26;14.30;95.10
22787;DHT22;63134;52.020;4.714;2023-04-23T16:40:13;14.30;95.20
22787;DHT22;63134;52.020;4.714;2023-04-23T16:43:00;14.20;95.20
22787;DHT22;63134;52.020;4.714;2023-04-23T16:45:45;14.20;95.10
22787;DHT22;63134;52.020;4.714;2023-04-23T16:48:31;14.20;95.10
22787;DHT22;63134;52.020;4.714;2023-04-23T16:51:22;14.20;95.20
22787;DHT22;63134;52.020;4.714;2023-04-23T16:54:11;14.10;95.10
22787;DHT22;63134;52.020;4.714;2023-04-23T16:56:56;14.10;95.20
22787;DHT22;63134;52.020;4.714;2023-04-23T16:59:42;14.10;95.20
22787;DHT22;63134;52.020;4.714;2023-04-23T17:02:27;14.00;94.90
22787;DHT22;63134;52.020;4.714;2023-04-23T17:05:13;14.00;95.00
22787;DHT22;63134;52.020;4.714;2023-04-23T17:07:58;14.00;95.00
22787;DHT22;63134;52.020;4.714;2023-04-23T17:10:44;14.00;95.00
22787;DHT22;63134;52.020;4.714;2023-04-23T17:13:32;14.00;94.90
22787;DHT22;63134;52.020;4.714;2023-04-23T17:16:21;14.00;95.00
22787;DHT22;63134;52.020;4.714;2023-04-23T17:19:07;13.90;94.90
22787;DHT22;63134;52.020;4.714;2023-04-23T17:21:52;13.90;94.90
22787;DHT22;63134;52.020;4.714;2023-04-23T17:24:38;13.90;94.90
22787;DHT22;63134;52.020;4.714;2023-04-23T17:27:25;13.80;95.00
22787;DHT22;63134;52.020;4.714;2023-04-23T17:30:10;13.80;95.00
22787;DHT22;63134;52.020;4.714;2023-04-23T17:32:56;13.80;95.10
22787;DHT22;63134;52.020;4.714;2023-04-23T17:35:42;13.80;95.10
22787;DHT22;63134;52.020;4.714;2023-04-23T17:38:27;13.80;95.10
22787;DHT22;63134;52.020;4.714;2023-04-23T17:41:13;13.80;95.10
22787;DHT22;63134;52.020;4.714;2023-04-23T17:43:59;13.70;95.00
22787;DHT22;63134;52.020;4.714;2023-04-23T17:46:45;13.70;95.00
22787;DHT22;63134;52.020;4.714;2023-04-23T17:49:32;13.70;95.00
22787;DHT22;63134;52.020;4.714;2023-04-23T17:52:17;13.70;95.10
22787;DHT22;63134;52.020;4.714;2023-04-23T17:55:03;13.70;95.00